Nanao, Japan
Current Conditions -  °F | °C
As of 9:00 AM on Saturday 25 Oct 2014 (Local Time) from RJNT Reporting Station
Clear Clear  
Wind Chill: 64°   Ceiling: Unl
Heat Index: 64°   Visibility: 6mi
Dew Point: 48°   Wind: 5mph
Humidity: 56%   Direction: 150°SSE
Pressure: 30.18"   Gusts: NA
Location:  37.05°N, 136.96°E
Report Text: RJNT 250000Z 15004KT 100V200 CAVOK 18/09 Q1022
Loading
Personal Weather Stations






























Interactive Weather Map
Tropical Storm Tracking
New forecast layout! Learn more

10-Day Weather Forecast

Advertisements
Track Severe Weather on mobile